Time;durP1;ratioP1;P1;durP2;ratioP2;P2;SDS_P1;SDS_P2;PMS_P1;PMS_P2;Temp;Humidity;BMP_temperature;BMP_pressure;BME280_temperature;BME280_humidity;BME280_pressure;Samples;Min_cycle;Max_cycle;Signal;HPM_P1;HPM_P2
2022/08/30 00:02:06;;;;;;;6.45;4.05;;;15.00;99.90;;;;;;5108538;28;20035;-67
2022/08/30 00:04:31;;;;;;;5.43;3.95;;;15.00;99.90;;;;;;5106235;28;20051;-69
2022/08/30 00:06:57;;;;;;;6.05;4.55;;;14.90;99.90;;;;;;5108775;27;20039;-68
2022/08/30 00:09:22;;;;;;;8.63;4.43;;;14.90;99.90;;;;;;5104829;28;20066;-68
2022/08/30 00:11:50;;;;;;;8.00;4.25;;;14.90;99.90;;;;;;5103531;28;20039;-67
2022/08/30 00:14:16;;;;;;;6.05;4.63;;;14.90;99.90;;;;;;5105618;28;20168;-65
2022/08/30 00:16:42;;;;;;;8.32;4.75;;;14.90;99.90;;;;;;5109318;28;20126;-68
2022/08/30 00:19:08;;;;;;;5.88;4.70;;;14.90;99.90;;;;;;5105729;28;20054;-68
2022/08/30 00:21:33;;;;;;;6.68;4.95;;;14.90;99.90;;;;;;5109103;28;20055;-69
2022/08/30 00:23:59;;;;;;;9.50;5.10;;;14.90;99.90;;;;;;5094913;28;20435;-67
2022/08/30 00:26:25;;;;;;;5.57;4.55;;;14.90;99.90;;;;;;5107937;28;20040;-71
2022/08/30 00:28:50;;;;;;;6.53;4.78;;;14.90;99.90;;;;;;5088706;28;20059;-69
2022/08/30 00:31:16;;;;;;;7.15;4.70;;;14.90;99.90;;;;;;5107276;28;20036;-68
2022/08/30 00:33:42;;;;;;;7.22;4.88;;;14.90;99.90;;;;;;5108470;27;20047;-72
2022/08/30 00:36:07;;;;;;;6.93;4.75;;;14.90;99.90;;;;;;5109454;28;20027;-68
2022/08/30 00:38:33;;;;;;;6.32;4.60;;;14.90;99.90;;;;;;5105361;28;20027;-68
2022/08/30 00:40:58;;;;;;;5.88;4.95;;;14.90;99.90;;;;;;5113698;27;20440;-67
2022/08/30 00:43:30;;;;;;;5.93;5.18;;;14.90;99.90;;;;;;5117938;27;20075;-68
2022/08/30 00:45:57;;;;;;;6.05;4.68;;;14.80;99.90;;;;;;5108511;28;20054;-66
2022/08/30 00:48:23;;;;;;;6.43;4.97;;;14.90;99.90;;;;;;5107854;28;20414;-66
2022/08/30 00:50:55;;;;;;;8.27;4.40;;;14.90;99.90;;;;;;5105759;28;20035;-65
2022/08/30 00:53:27;;;;;;;5.47;4.53;;;14.90;99.90;;;;;;5107108;28;20044;-67
2022/08/30 00:55:54;;;;;;;4.82;4.32;;;14.90;99.90;;;;;;5105688;28;20051;-68
2022/08/30 00:58:29;;;;;;;4.95;4.45;;;14.90;99.90;;;;;;5106754;28;20104;-66
2022/08/30 01:00:59;;;;;;;9.45;5.03;;;14.90;99.90;;;;;;5107688;28;20046;-68
2022/08/30 01:03:25;;;;;;;7.30;4.82;;;14.80;99.90;;;;;;5108011;28;20513;-67
2022/08/30 01:05:52;;;;;;;5.60;4.75;;;14.90;99.90;;;;;;5104050;28;20070;-71
2022/08/30 01:08:22;;;;;;;8.38;4.65;;;14.90;99.90;;;;;;5104625;28;20117;-68
2022/08/30 01:10:50;;;;;;;6.35;4.25;;;14.90;99.90;;;;;;5106902;28;20496;-66
2022/08/30 01:13:16;;;;;;;5.90;4.15;;;14.80;99.90;;;;;;5113617;27;20089;-66
2022/08/30 01:15:44;;;;;;;5.13;4.25;;;14.80;99.90;;;;;;5117855;27;20063;-71
2022/08/30 01:18:10;;;;;;;6.65;4.53;;;14.90;99.90;;;;;;5115085;27;20815;-67
2022/08/30 01:21:03;;;;;;;5.95;4.38;;;14.80;99.90;;;;;;5107677;28;20123;-67
2022/08/30 01:23:30;;;;;;;6.25;3.83;;;14.80;99.90;;;;;;5087808;28;20131;-66
2022/08/30 01:25:57;;;;;;;22.85;4.65;;;14.90;99.90;;;;;;5107243;28;20041;-67
2022/08/30 01:28:25;;;;;;;5.70;3.95;;;14.80;99.90;;;;;;5115568;27;20046;-68
2022/08/30 01:30:51;;;;;;;6.20;4.82;;;14.80;99.90;;;;;;5106172;28;20088;-67
2022/08/30 01:33:18;;;;;;;7.45;4.18;;;14.80;99.90;;;;;;5106506;28;20031;-69
2022/08/30 01:36:03;;;;;;;6.03;3.70;;;14.80;99.90;;;;;;5106330;28;20050;-68
2022/08/30 01:38:48;;;;;;;6.35;3.97;;;14.80;99.90;;;;;;5108188;28;20134;-71
2022/08/30 01:41:29;;;;;;;5.85;3.60;;;14.90;99.90;;;;;;5105375;28;20118;-66
2022/08/30 01:43:58;;;;;;;5.63;3.70;;;14.90;99.90;;;;;;5101981;28;20486;-67
2022/08/30 01:46:27;;;;;;;5.18;4.05;;;14.80;99.90;;;;;;5117591;28;20478;-67
2022/08/30 01:48:55;;;;;;;4.80;3.65;;;14.90;99.90;;;;;;5105976;28;20450;-68
2022/08/30 01:51:23;;;;;;;5.88;3.58;;;14.90;99.90;;;;;;5117189;28;20044;-68
2022/08/30 01:53:49;;;;;;;4.65;3.58;;;14.80;99.90;;;;;;5106756;28;20071;-68
2022/08/30 01:56:14;;;;;;;4.43;3.45;;;14.80;99.90;;;;;;5110135;28;20071;-69
2022/08/30 01:58:41;;;;;;;4.25;3.67;;;14.80;99.90;;;;;;5089819;28;20040;-66
2022/08/30 02:01:11;;;;;;;6.68;3.42;;;14.80;99.90;;;;;;5108378;28;20122;-67
2022/08/30 02:03:38;;;;;;;7.03;3.72;;;14.80;99.90;;;;;;5109741;28;20039;-68
2022/08/30 02:06:06;;;;;;;4.75;3.63;;;14.80;99.90;;;;;;5117617;28;20042;-67
2022/08/30 02:08:32;;;;;;;5.68;3.55;;;14.80;99.90;;;;;;5100674;28;20557;-71
2022/08/30 02:10:58;;;;;;;4.60;3.35;;;14.70;99.90;;;;;;5099467;28;20052;-66
2022/08/30 02:13:29;;;;;;;4.97;3.20;;;14.70;99.90;;;;;;5128340;28;20497;-72
2022/08/30 02:15:55;;;;;;;5.10;3.50;;;14.60;99.90;;;;;;5106119;28;20035;-67
2022/08/30 02:18:23;;;;;;;8.60;3.70;;;14.60;99.90;;;;;;5126372;28;20508;-69
2022/08/30 02:20:48;;;;;;;5.38;3.58;;;14.60;99.90;;;;;;5108801;28;20047;-69
2022/08/30 02:23:14;;;;;;;5.07;3.92;;;14.60;99.90;;;;;;5108158;28;20354;-69
2022/08/30 02:25:40;;;;;;;4.75;3.72;;;14.50;99.90;;;;;;5104993;28;20058;-68
2022/08/30 02:28:06;;;;;;;4.40;3.47;;;14.60;99.90;;;;;;5108440;28;20109;-68
2022/08/30 02:30:32;;;;;;;5.13;3.67;;;14.50;99.90;;;;;;5103299;28;20049;-68
2022/08/30 02:32:58;;;;;;;5.53;3.53;;;14.50;99.90;;;;;;5110732;28;20082;-68
2022/08/30 02:35:24;;;;;;;9.38;3.78;;;14.50;99.90;;;;;;5111840;27;20114;-68
2022/08/30 02:37:50;;;;;;;6.93;3.95;;;14.50;99.90;;;;;;5117575;27;20043;-72
2022/08/30 02:40:17;;;;;;;6.97;3.60;;;14.50;99.90;;;;;;5108688;28;20195;-69
2022/08/30 02:42:43;;;;;;;5.18;3.60;;;14.50;99.90;;;;;;5111744;28;20048;-67
2022/08/30 02:45:09;;;;;;;7.13;3.80;;;14.50;99.90;;;;;;5108200;27;20044;-68
2022/08/30 02:47:35;;;;;;;5.50;4.43;;;14.50;99.90;;;;;;5107177;28;20027;-69
2022/08/30 02:50:05;;;;;;;5.65;3.70;;;14.50;99.90;;;;;;5129650;27;20058;-69
2022/08/30 02:52:30;;;;;;;4.00;3.60;;;14.50;99.90;;;;;;5116756;27;20118;-73
2022/08/30 02:54:56;;;;;;;4.88;3.78;;;14.50;99.90;;;;;;5125722;27;20106;-71
2022/08/30 02:57:22;;;;;;;4.47;3.50;;;14.50;99.90;;;;;;5110436;28;20466;-68
2022/08/30 02:59:48;;;;;;;5.32;3.95;;;14.50;99.90;;;;;;5114895;27;20130;-69
2022/08/30 03:02:14;;;;;;;5.13;3.58;;;14.50;99.90;;;;;;5112362;28;20046;-68
2022/08/30 03:04:43;;;;;;;6.63;3.78;;;14.50;99.90;;;;;;5120187;27;20047;-69
2022/08/30 03:07:09;;;;;;;4.28;3.83;;;14.40;99.90;;;;;;5114505;27;20050;-68
2022/08/30 03:09:35;;;;;;;4.95;3.47;;;14.40;99.90;;;;;;5111102;28;20406;-69
2022/08/30 03:12:02;;;;;;;7.47;3.95;;;14.30;99.90;;;;;;5126796;27;20060;-66
2022/08/30 03:14:27;;;;;;;7.53;3.88;;;14.30;99.90;;;;;;5108739;28;20039;-67
2022/08/30 03:16:54;;;;;;;6.68;4.28;;;14.30;99.90;;;;;;5102393;28;20050;-68
2022/08/30 03:19:20;;;;;;;4.22;3.83;;;14.30;99.90;;;;;;5111766;28;20036;-67
2022/08/30 03:21:45;;;;;;;5.30;4.10;;;14.30;99.90;;;;;;5122555;27;20060;-68
2022/08/30 03:24:12;;;;;;;4.13;3.72;;;14.20;99.90;;;;;;5129255;27;20083;-68
2022/08/30 03:26:38;;;;;;;7.05;4.28;;;14.20;99.90;;;;;;5108263;28;20513;-70
2022/08/30 03:29:04;;;;;;;5.80;3.90;;;14.20;99.90;;;;;;5110738;28;20035;-66
2022/08/30 03:31:29;;;;;;;5.28;3.85;;;14.20;99.90;;;;;;5111380;28;20039;-67
2022/08/30 03:33:55;;;;;;;5.20;4.05;;;14.20;99.90;;;;;;5111019;28;20474;-68
2022/08/30 03:36:21;;;;;;;6.63;4.35;;;14.20;99.90;;;;;;5111517;28;20093;-69
2022/08/30 03:38:46;;;;;;;6.55;4.47;;;14.10;99.90;;;;;;5111042;27;20046;-67
2022/08/30 03:41:12;;;;;;;4.85;4.00;;;14.10;99.90;;;;;;5128433;27;20104;-68
2022/08/30 03:43:38;;;;;;;5.82;4.35;;;14.10;99.90;;;;;;5119321;27;20511;-66
2022/08/30 03:46:04;;;;;;;6.20;4.53;;;14.00;99.90;;;;;;5093726;28;20043;-69
2022/08/30 03:48:29;;;;;;;5.88;4.20;;;14.00;99.90;;;;;;5110352;28;20039;-69
2022/08/30 03:50:55;;;;;;;5.53;4.20;;;14.00;99.90;;;;;;5131418;27;20088;-66
2022/08/30 03:53:22;;;;;;;4.95;4.18;;;14.00;99.90;;;;;;5126602;27;20040;-67
2022/08/30 03:55:47;;;;;;;7.68;4.18;;;13.90;99.90;;;;;;5114561;27;20090;-66
2022/08/30 03:58:13;;;;;;;4.97;4.18;;;13.90;99.90;;;;;;5126856;27;20078;-68
2022/08/30 04:00:38;;;;;;;5.47;4.30;;;13.90;99.90;;;;;;5110293;28;20542;-69
2022/08/30 04:03:04;;;;;;;6.07;4.40;;;13.90;99.90;;;;;;5126431;27;20035;-69
2022/08/30 04:05:30;;;;;;;4.70;4.03;;;13.80;99.90;;;;;;5114039;27;20051;-68
2022/08/30 04:07:56;;;;;;;6.75;4.35;;;13.80;99.90;;;;;;5130770;27;20499;-66
2022/08/30 04:10:22;;;;;;;5.50;4.53;;;13.70;99.90;;;;;;5114568;27;20043;-69
2022/08/30 04:12:49;;;;;;;6.53;4.60;;;13.70;99.90;;;;;;5129260;27;20476;-70
2022/08/30 04:15:17;;;;;;;7.43;4.63;;;13.70;99.90;;;;;;5122259;27;20047;-68
2022/08/30 04:17:42;;;;;;;5.40;4.70;;;13.70;99.90;;;;;;5109522;28;20038;-66
2022/08/30 04:20:09;;;;;;;4.55;4.15;;;13.60;99.90;;;;;;5118800;27;20039;-68
2022/08/30 04:22:35;;;;;;;10.43;4.47;;;13.60;99.90;;;;;;5093232;28;20052;-68
2022/08/30 04:25:02;;;;;;;4.90;4.40;;;13.60;99.90;;;;;;5107005;28;20490;-65
2022/08/30 04:27:28;;;;;;;5.18;4.70;;;13.50;99.90;;;;;;5128371;27;20443;-68
2022/08/30 04:29:55;;;;;;;5.57;5.07;;;13.50;99.90;;;;;;5098675;28;20042;-68
2022/08/30 04:32:21;;;;;;;6.03;4.55;;;13.50;99.90;;;;;;5107221;28;20032;-68
2022/08/30 04:34:46;;;;;;;6.57;5.00;;;13.40;99.90;;;;;;5106821;28;20062;-69
2022/08/30 04:37:12;;;;;;;6.45;4.78;;;13.40;99.90;;;;;;5108552;27;20035;-67
2022/08/30 04:39:38;;;;;;;6.57;4.88;;;13.40;99.90;;;;;;5104191;28;20509;-67
2022/08/30 04:42:05;;;;;;;6.68;5.40;;;13.40;99.90;;;;;;5108141;28;20139;-66
2022/08/30 04:44:31;;;;;;;7.18;5.00;;;13.30;99.90;;;;;;5127838;27;20051;-66
2022/08/30 04:46:57;;;;;;;6.47;4.60;;;13.30;99.90;;;;;;5094727;28;20523;-68
2022/08/30 04:49:23;;;;;;;6.40;5.05;;;13.30;99.90;;;;;;5108347;27;20087;-66
2022/08/30 04:51:49;;;;;;;5.32;4.32;;;13.30;99.90;;;;;;5106387;28;20974;-66
2022/08/30 04:54:14;;;;;;;5.15;4.60;;;13.30;99.90;;;;;;5103747;28;20055;-67
2022/08/30 04:56:40;;;;;;;6.63;5.10;;;13.20;99.90;;;;;;5107248;28;20046;-67
2022/08/30 04:59:06;;;;;;;6.38;4.68;;;13.20;99.90;;;;;;5118246;27;20039;-67
2022/08/30 05:01:32;;;;;;;8.38;5.43;;;13.20;99.90;;;;;;5109798;27;20470;-68
2022/08/30 05:03:58;;;;;;;4.88;4.38;;;13.10;99.90;;;;;;5096438;28;20100;-66
2022/08/30 05:06:26;;;;;;;5.60;4.93;;;13.20;99.90;;;;;;5102850;28;20035;-68
2022/08/30 05:08:53;;;;;;;6.85;4.70;;;13.20;99.90;;;;;;5100164;28;21192;-67
2022/08/30 05:11:19;;;;;;;7.47;4.97;;;13.20;99.90;;;;;;5103646;28;20028;-69
2022/08/30 05:13:45;;;;;;;9.65;5.18;;;13.20;99.90;;;;;;5108535;28;20363;-69
2022/08/30 05:16:16;;;;;;;5.90;4.70;;;13.20;99.90;;;;;;5108910;28;20023;-67
2022/08/30 05:18:43;;;;;;;6.18;5.18;;;13.20;99.90;;;;;;5106715;28;20134;-68
2022/08/30 05:21:13;;;;;;;8.80;5.70;;;13.30;99.90;;;;;;5101865;28;20382;-67
2022/08/30 05:23:40;;;;;;;4.75;4.35;;;13.30;99.90;;;;;;5106627;28;20047;-67
2022/08/30 05:26:08;;;;;;;5.50;4.85;;;13.30;99.90;;;;;;5127891;27;20066;-66
2022/08/30 05:28:35;;;;;;;6.80;4.75;;;13.40;99.90;;;;;;5130317;27;20421;-69
2022/08/30 05:31:01;;;;;;;6.72;5.45;;;13.40;99.90;;;;;;5130157;27;20042;-67
2022/08/30 05:33:27;;;;;;;7.03;5.93;;;13.50;99.90;;;;;;5130621;27;20477;-68
2022/08/30 05:35:53;;;;;;;11.38;6.20;;;13.50;99.90;;;;;;5130142;27;20039;-67
2022/08/30 05:38:19;;;;;;;9.85;6.03;;;13.60;99.90;;;;;;5130102;27;20035;-69
2022/08/30 05:40:45;;;;;;;8.50;5.85;;;13.70;99.90;;;;;;5130087;28;20553;-69
2022/08/30 05:43:11;;;;;;;7.93;5.97;;;13.70;99.90;;;;;;5130049;28;20134;-68
2022/08/30 05:45:37;;;;;;;6.38;5.15;;;13.70;99.90;;;;;;5130183;28;20051;-66
2022/08/30 05:48:03;;;;;;;6.75;5.60;;;13.80;99.90;;;;;;5130019;28;20096;-67
2022/08/30 05:50:29;;;;;;;9.05;5.93;;;13.80;99.90;;;;;;5129941;27;20043;-70
2022/08/30 05:52:55;;;;;;;10.90;6.15;;;13.90;99.90;;;;;;5129743;27;20077;-68
2022/08/30 05:55:20;;;;;;;7.35;5.63;;;14.00;99.90;;;;;;5130017;27;20047;-69
2022/08/30 05:57:46;;;;;;;7.82;6.00;;;14.00;99.90;;;;;;5129929;28;20043;-69
2022/08/30 06:00:17;;;;;;;8.25;5.15;;;14.10;99.90;;;;;;5129979;28;20581;-69
2022/08/30 06:02:43;;;;;;;7.88;5.32;;;14.10;99.90;;;;;;5113273;28;20477;-67
2022/08/30 06:05:10;;;;;;;7.75;5.82;;;14.20;99.90;;;;;;5133900;27;20042;-68
2022/08/30 06:07:36;;;;;;;7.00;5.78;;;14.30;99.90;;;;;;5135660;27;20377;-67
2022/08/30 06:10:05;;;;;;;10.45;5.57;;;14.30;99.90;;;;;;5133993;27;20027;-68
2022/08/30 06:12:30;;;;;;;9.18;5.70;;;14.40;99.90;;;;;;5134278;27;20499;-68
2022/08/30 06:14:56;;;;;;;7.45;5.40;;;14.40;99.90;;;;;;5133779;27;20035;-67
2022/08/30 06:17:21;;;;;;;10.45;5.90;;;14.50;99.90;;;;;;5134134;27;20110;-69
2022/08/30 06:19:47;;;;;;;7.75;5.20;;;14.60;99.90;;;;;;5133808;27;20127;-71
2022/08/30 06:22:13;;;;;;;9.35;6.30;;;14.60;99.90;;;;;;5133523;27;20091;-67
2022/08/30 06:24:38;;;;;;;6.07;4.75;;;14.70;99.90;;;;;;5133766;27;20121;-65
2022/08/30 06:27:04;;;;;;;7.40;4.90;;;14.80;99.90;;;;;;5133771;27;20035;-73
2022/08/30 06:29:30;;;;;;;7.28;4.75;;;15.00;99.90;;;;;;5133837;27;20043;-69
2022/08/30 06:31:57;;;;;;;5.35;4.80;;;15.10;99.90;;;;;;5133397;27;20055;-70
2022/08/30 06:34:23;;;;;;;7.25;4.90;;;15.20;99.90;;;;;;5116004;27;20043;-70
2022/08/30 06:36:48;;;;;;;7.15;4.28;;;15.30;99.90;;;;;;5133759;27;20439;-70
2022/08/30 06:39:14;;;;;;;4.68;4.15;;;15.40;99.90;;;;;;5134636;27;20088;-70
2022/08/30 06:41:40;;;;;;;8.50;4.40;;;15.60;99.90;;;;;;5133853;27;20035;-67
2022/08/30 06:44:07;;;;;;;7.82;4.70;;;15.70;99.90;;;;;;5133136;27;20473;-67
2022/08/30 06:46:36;;;;;;;4.93;3.80;;;15.90;99.90;;;;;;5116137;27;20130;-67
2022/08/30 06:49:03;;;;;;;5.57;4.05;;;16.00;99.90;;;;;;5133019;27;20043;-67
2022/08/30 06:51:34;;;;;;;4.45;3.58;;;16.20;99.90;;;;;;5133434;27;20035;-70
2022/08/30 06:54:01;;;;;;;5.57;3.67;;;16.40;99.90;;;;;;5116286;27;20047;-69
2022/08/30 06:56:27;;;;;;;4.13;3.60;;;16.50;99.90;;;;;;5133192;27;20039;-69
2022/08/30 06:58:53;;;;;;;5.18;3.67;;;16.70;99.90;;;;;;5133410;27;20465;-69
2022/08/30 07:01:22;;;;;;;5.00;3.20;;;16.80;99.90;;;;;;5134364;27;20053;-68
2022/08/30 07:03:48;;;;;;;6.10;3.10;;;17.00;99.90;;;;;;5132962;27;20064;-71
2022/08/30 07:06:14;;;;;;;4.50;3.15;;;17.10;99.90;;;;;;5122559;27;20122;-68
2022/08/30 07:08:40;;;;;;;6.13;2.90;;;17.20;99.90;;;;;;5132121;27;20039;-68
2022/08/30 07:11:07;;;;;;;5.93;2.70;;;17.30;99.90;;;;;;5115255;27;20054;-68
2022/08/30 07:13:33;;;;;;;4.13;2.45;;;17.40;99.90;;;;;;5132952;27;20099;-70
2022/08/30 07:15:59;;;;;;;5.85;2.42;;;17.50;99.90;;;;;;5132392;27;20058;-69
2022/08/30 07:21:14;;;;;;;5.10;2.47;;;17.80;99.90;;;;;;5132739;27;20035;-68
2022/08/30 07:23:41;;;;;;;3.53;2.05;;;17.90;99.90;;;;;;5115680;27;20073;-67
2022/08/30 07:26:09;;;;;;;4.20;1.88;;;18.00;99.90;;;;;;5134034;27;20477;-69
2022/08/30 07:28:41;;;;;;;3.85;1.90;;;18.20;99.90;;;;;;5132493;27;20424;-67
2022/08/30 07:31:08;;;;;;;6.28;1.77;;;18.30;99.90;;;;;;5115158;27;20157;-67
2022/08/30 07:33:33;;;;;;;2.45;1.60;;;18.40;99.90;;;;;;5132484;27;20058;-72
2022/08/30 07:35:59;;;;;;;5.47;1.95;;;18.50;99.90;;;;;;5132738;27;20523;-69
2022/08/30 07:38:26;;;;;;;2.85;1.55;;;18.60;99.90;;;;;;5132280;27;20170;-69
2022/08/30 07:40:52;;;;;;;2.20;1.30;;;18.70;99.90;;;;;;5132536;27;20042;-72
2022/08/30 07:43:17;;;;;;;2.65;1.23;;;18.70;99.90;;;;;;5131922;27;20059;-69
2022/08/30 07:45:43;;;;;;;4.40;1.58;;;18.80;99.90;;;;;;5132214;27;20050;-69
2022/08/30 07:48:11;;;;;;;3.75;1.52;;;18.90;99.90;;;;;;5132378;27;20035;-64
2022/08/30 07:50:37;;;;;;;4.00;1.30;;;19.00;99.90;;;;;;5132163;27;20597;-68
2022/08/30 07:53:03;;;;;;;3.78;1.25;;;19.10;99.90;;;;;;5132445;27;20031;-67
2022/08/30 07:55:29;;;;;;;2.03;1.08;;;19.20;99.90;;;;;;5131917;27;20084;-67
2022/08/30 07:57:55;;;;;;;3.55;1.30;;;19.30;99.90;;;;;;5132128;27;20566;-68
2022/08/30 08:00:21;;;;;;;4.82;1.05;;;19.50;99.90;;;;;;5114415;27;20088;-68
2022/08/30 08:02:46;;;;;;;3.15;1.20;;;19.60;99.90;;;;;;5131989;27;20042;-68
2022/08/30 08:05:13;;;;;;;2.20;1.10;;;19.70;99.90;;;;;;5132060;27;20046;-67
2022/08/30 08:07:39;;;;;;;1.77;1.05;;;19.80;99.90;;;;;;5131610;27;20121;-67
2022/08/30 08:10:05;;;;;;;2.63;1.23;;;19.80;99.90;;;;;;5114762;27;20080;-69
2022/08/30 08:12:31;;;;;;;2.88;1.15;;;19.90;99.90;;;;;;5131769;27;20126;-69
2022/08/30 08:14:57;;;;;;;3.47;1.10;;;20.00;99.90;;;;;;5114181;27;20122;-69
2022/08/30 08:17:22;;;;;;;3.25;1.58;;;20.10;99.90;;;;;;5131479;27;20370;-69
2022/08/30 08:19:48;;;;;;;2.70;1.38;;;20.20;99.90;;;;;;5131764;27;20043;-68
2022/08/30 08:22:13;;;;;;;4.43;1.33;;;20.20;99.90;;;;;;5131838;27;20042;-65
2022/08/30 08:24:39;;;;;;;2.10;1.33;;;20.20;99.90;;;;;;5131293;27;20043;-69
2022/08/30 08:27:05;;;;;;;4.40;1.50;;;20.30;99.90;;;;;;5130677;27;20438;-66
2022/08/30 08:29:30;;;;;;;2.22;1.40;;;20.40;99.90;;;;;;5131102;27;20096;-67
2022/08/30 08:31:57;;;;;;;4.45;1.30;;;20.40;99.90;;;;;;5131261;27;20066;-67
2022/08/30 08:34:22;;;;;;;4.38;1.45;;;20.60;99.90;;;;;;5131675;27;20071;-68
2022/08/30 08:36:51;;;;;;;2.20;1.33;;;20.70;99.90;;;;;;5131133;27;20065;-70
2022/08/30 08:39:17;;;;;;;4.20;1.20;;;20.90;99.90;;;;;;5131542;27;20497;-69
2022/08/30 08:41:54;;;;;;;3.83;1.10;;;21.00;99.90;;;;;;5131114;27;20087;-68
2022/08/30 08:44:44;;;;;;;5.55;1.10;;;21.00;99.90;;;;;;5130998;27;20126;-70
2022/08/30 08:47:21;;;;;;;3.38;1.20;;;21.10;99.90;;;;;;5131078;27;20443;-69
2022/08/30 08:49:50;;;;;;;2.53;1.52;;;21.10;99.90;;;;;;5130696;27;20043;-67
2022/08/30 08:55:11;;;;;;;3.58;1.90;;;21.20;99.70;;;;;;5131028;27;20412;-68
2022/08/30 08:57:37;;;;;;;3.67;1.50;;;21.30;99.40;;;;;;5130927;27;20536;-69
2022/08/30 09:00:09;;;;;;;2.75;1.17;;;21.30;99.70;;;;;;5130775;27;20120;-67
2022/08/30 09:02:42;;;;;;;2.58;1.27;;;21.40;99.30;;;;;;5130673;27;20057;-68
2022/08/30 09:05:11;;;;;;;3.13;1.45;;;21.40;98.90;;;;;;5113556;27;20782;-67
2022/08/30 09:07:41;;;;;;;2.38;1.27;;;21.40;99.10;;;;;;5130746;27;20068;-67
2022/08/30 09:10:07;;;;;;;1.85;1.17;;;21.50;98.90;;;;;;5130479;27;20038;-69
2022/08/30 09:12:33;;;;;;;2.33;1.10;;;21.60;98.60;;;;;;5130495;27;20035;-70
2022/08/30 09:15:10;;;;;;;1.92;1.10;;;21.70;98.20;;;;;;5130380;27;20050;-69
2022/08/30 09:18:08;;;;;;;2.35;1.30;;;21.70;98.20;;;;;;5130399;27;20053;-68
2022/08/30 09:20:45;;;;;;;2.10;1.15;;;21.80;97.90;;;;;;5130308;27;20489;-69
2022/08/30 09:23:14;;;;;;;2.65;1.20;;;21.80;97.80;;;;;;5130343;27;20056;-66
2022/08/30 09:26:00;;;;;;;1.38;1.00;;;22.00;98.30;;;;;;5130279;27;20095;-67
2022/08/30 09:28:28;;;;;;;2.28;0.93;;;22.30;96.60;;;;;;5130642;27;20035;-70
2022/08/30 09:31:16;;;;;;;3.92;1.10;;;22.30;97.30;;;;;;5130134;27;20046;-66
2022/08/30 09:34:02;;;;;;;2.20;1.40;;;22.40;97.10;;;;;;5130338;27;20043;-67
2022/08/30 09:36:32;;;;;;;2.42;1.17;;;22.60;96.20;;;;;;5130725;27;20038;-68
2022/08/30 09:39:04;;;;;;;4.88;1.23;;;22.70;95.80;;;;;;5129935;27;20049;-68
2022/08/30 09:41:41;;;;;;;4.03;1.17;;;22.80;95.80;;;;;;5130394;27;20050;-67
2022/08/30 09:44:18;;;;;;;1.42;1.02;;;23.00;95.20;;;;;;5129891;28;20043;-68
2022/08/30 09:46:56;;;;;;;1.73;1.15;;;23.00;94.70;;;;;;5130093;28;20122;-68
2022/08/30 09:49:42;;;;;;;3.28;1.27;;;23.20;94.50;;;;;;5130039;28;20045;-69
2022/08/30 09:52:22;;;;;;;3.30;1.02;;;23.20;94.00;;;;;;5130008;27;20385;-71
2022/08/30 09:54:59;;;;;;;2.15;1.25;;;23.20;94.00;;;;;;5131416;27;20039;-71
2022/08/30 09:57:51;;;;;;;2.58;1.10;;;23.30;94.60;;;;;;5130303;28;20075;-67
2022/08/30 10:00:20;;;;;;;2.90;1.90;;;23.40;94.40;;;;;;5031254;28;20045;-69
2022/08/30 10:03:03;;;;;;;2.28;0.90;;;23.50;94.00;;;;;;5031339;28;20049;-71
2022/08/30 10:05:32;;;;;;;2.88;1.10;;;23.80;94.10;;;;;;5031445;28;20488;-70
2022/08/30 10:08:13;;;;;;;2.17;1.58;;;23.90;93.40;;;;;;5014669;28;20037;-66
2022/08/30 10:10:52;;;;;;;2.55;1.35;;;24.10;94.40;;;;;;5023978;28;20615;-68
2022/08/30 10:13:46;;;;;;;2.78;0.93;;;24.00;93.40;;;;;;5011534;28;20104;-68
2022/08/30 10:16:30;;;;;;;1.05;0.90;;;24.10;93.00;;;;;;5025615;28;20504;-69
2022/08/30 10:19:17;;;;;;;2.30;1.10;;;24.20;93.50;;;;;;5011071;28;20136;-70
2022/08/30 10:22:01;;;;;;;2.13;1.02;;;24.40;93.00;;;;;;5011106;28;20034;-71
2022/08/30 10:24:34;;;;;;;1.95;1.08;;;24.60;92.40;;;;;;5011288;28;20136;-69
2022/08/30 10:27:16;;;;;;;2.88;1.10;;;24.70;91.90;;;;;;5011467;28;20069;-70
2022/08/30 10:30:02;;;;;;;;;;;24.70;91.30;;;;;;5028115;28;20045;-68
2022/08/30 10:32:42;;;;;;;2.10;0.85;;;24.70;92.30;;;;;;5010794;28;19931;-66
2022/08/30 10:35:20;;;;;;;3.42;1.02;;;24.90;91.70;;;;;;4994180;28;20056;-70
2022/08/30 10:38:02;;;;;;;3.38;0.90;;;24.80;91.40;;;;;;5080647;28;20057;-67
2022/08/30 10:43:33;;;;;;;2.17;0.95;;;25.10;90.40;;;;;;5127356;27;20047;-65
2022/08/30 10:46:08;;;;;;;2.55;1.00;;;25.30;90.60;;;;;;5129492;28;20043;-68
2022/08/30 10:48:41;;;;;;;1.85;0.95;;;25.40;90.50;;;;;;5129864;27;20607;-70
2022/08/30 10:51:56;;;;;;;2.20;1.20;;;25.50;90.40;;;;;;5132894;27;20039;-68
2022/08/30 10:54:33;;;;;;;1.90;0.93;;;25.40;89.90;;;;;;5057954;28;20044;-69
2022/08/30 10:56:59;;;;;;;1.88;1.02;;;25.40;90.30;;;;;;5074237;28;20411;-68
2022/08/30 10:59:25;;;;;;;2.60;1.17;;;25.50;90.30;;;;;;5068880;28;20274;-69
2022/08/30 11:02:12;;;;;;;5.05;0.95;;;25.50;89.20;;;;;;5053340;28;20033;-70
2022/08/30 11:05:04;;;;;;;3.33;1.00;;;25.50;89.00;;;;;;5051754;28;20283;-70
2022/08/30 11:07:37;;;;;;;2.65;1.00;;;25.50;89.20;;;;;;5052567;28;20033;-69
2022/08/30 11:10:37;;;;;;;3.22;0.90;;;25.50;89.60;;;;;;5052319;28;20442;-69
2022/08/30 11:13:11;;;;;;;2.40;1.00;;;25.40;89.90;;;;;;5061593;28;20055;-68
2022/08/30 11:15:52;;;;;;;1.67;1.00;;;25.30;88.80;;;;;;5053718;28;20155;-68
2022/08/30 11:18:19;;;;;;;3.55;1.10;;;25.40;88.90;;;;;;5053946;28;20048;-66
2022/08/30 11:20:46;;;;;;;1.58;0.90;;;25.20;88.80;;;;;;5064731;28;20438;-70
2022/08/30 11:23:17;;;;;;;2.03;1.20;;;25.20;88.30;;;;;;5070254;28;20051;-67
2022/08/30 11:26:01;;;;;;;4.20;0.90;;;25.20;88.30;;;;;;5053770;28;20445;-67
2022/08/30 11:28:35;;;;;;;1.67;0.90;;;25.30;89.10;;;;;;5052462;28;20118;-65
2022/08/30 11:31:19;;;;;;;2.85;0.80;;;25.40;87.10;;;;;;5087137;28;20459;-67
2022/08/30 11:33:48;;;;;;;1.67;1.00;;;25.40;88.70;;;;;;5112029;28;20122;-69
2022/08/30 11:36:37;;;;;;;3.92;0.80;;;25.40;88.30;;;;;;5120729;27;20547;-68
2022/08/30 11:39:09;;;;;;;1.95;0.90;;;25.40;88.10;;;;;;5095419;28;20055;-70
2022/08/30 11:41:39;;;;;;;1.85;0.90;;;25.40;86.50;;;;;;5111666;28;20101;-67
2022/08/30 11:44:21;;;;;;;5.82;1.70;;;25.50;87.80;;;;;;5115905;27;20147;-68
2022/08/30 11:46:48;;;;;;;2.50;1.00;;;25.50;86.70;;;;;;5131475;27;20051;-67
2022/08/30 11:49:17;;;;;;;1.40;0.88;;;25.40;87.30;;;;;;5117350;27;20051;-67
2022/08/30 11:52:22;;;;;;;6.68;0.88;;;25.40;87.70;;;;;;5130603;27;20053;-66
2022/08/30 11:55:01;;;;;;;1.73;0.90;;;25.30;85.90;;;;;;5129924;27;20039;-67
2022/08/30 11:57:49;;;;;;;1.92;1.00;;;25.30;86.90;;;;;;5123543;27;20441;-68
2022/08/30 12:00:30;;;;;;;2.75;0.88;;;25.30;85.90;;;;;;5013097;28;20140;-67
2022/08/30 12:02:57;;;;;;;2.58;0.90;;;25.10;85.80;;;;;;4999994;28;20094;-66
2022/08/30 12:05:41;;;;;;;3.40;1.00;;;25.10;87.00;;;;;;5013582;28;20061;-67
2022/08/30 12:08:09;;;;;;;3.45;1.00;;;25.00;86.40;;;;;;5009029;28;20069;-65
2022/08/30 12:10:42;;;;;;;2.88;1.00;;;24.70;86.30;;;;;;4996501;28;20100;-67
2022/08/30 12:13:09;;;;;;;5.05;0.90;;;24.80;87.10;;;;;;5012377;28;20116;-68
2022/08/30 12:15:55;;;;;;;2.05;0.93;;;24.70;85.90;;;;;;5012887;28;20436;-68
2022/08/30 12:18:29;;;;;;;3.75;1.00;;;24.50;87.00;;;;;;5012665;28;20053;-68
2022/08/30 12:21:12;;;;;;;3.88;0.98;;;24.40;88.10;;;;;;5013180;28;20065;-68
2022/08/30 12:23:58;;;;;;;3.03;0.90;;;24.40;86.10;;;;;;5011748;28;20057;-69
2022/08/30 12:26:24;;;;;;;3.42;1.20;;;24.30;85.70;;;;;;5012495;28;20114;-66
2022/08/30 12:28:52;;;;;;;2.38;1.10;;;24.20;86.60;;;;;;5014336;28;20132;-67
2022/08/30 12:31:23;;;;;;;1.48;1.05;;;24.20;86.00;;;;;;5010464;28;20053;-68
2022/08/30 12:33:59;;;;;;;1.50;1.00;;;24.10;85.30;;;;;;5029124;28;20045;-69
2022/08/30 12:36:38;;;;;;;1.73;1.02;;;24.00;84.50;;;;;;5024200;28;20104;-68
2022/08/30 12:39:28;;;;;;;2.13;0.93;;;23.80;85.80;;;;;;5109944;28;20104;-68
2022/08/30 12:41:55;;;;;;;2.55;1.02;;;23.80;85.70;;;;;;5120618;27;20074;-69
2022/08/30 12:44:25;;;;;;;1.88;1.10;;;23.70;85.00;;;;;;5114137;27;20066;-70
2022/08/30 12:47:00;;;;;;;2.58;0.90;;;23.60;85.20;;;;;;5111539;27;20121;-68
2022/08/30 12:49:29;;;;;;;3.17;1.20;;;23.50;85.40;;;;;;5113250;27;20054;-68
2022/08/30 12:52:14;;;;;;;3.13;1.30;;;23.50;85.30;;;;;;5127863;27;20114;-65
2022/08/30 12:54:40;;;;;;;1.48;0.98;;;23.40;84.20;;;;;;5092883;28;20042;-68
2022/08/30 12:57:08;;;;;;;2.65;0.93;;;23.40;83.80;;;;;;5113649;27;20390;-67
2022/08/30 12:59:44;;;;;;;1.90;0.80;;;23.30;83.70;;;;;;5097949;28;20116;-67
2022/08/30 13:02:17;;;;;;;2.00;1.00;;;23.20;84.50;;;;;;5118866;27;20047;-67
2022/08/30 13:04:46;;;;;;;1.65;1.00;;;23.20;85.60;;;;;;5108010;28;20070;-68
2022/08/30 13:07:24;;;;;;;2.42;1.00;;;23.10;85.40;;;;;;5129872;27;20038;-67
2022/08/30 13:10:24;;;;;;;2.03;0.85;;;23.20;85.80;;;;;;5130523;27;20471;-69
2022/08/30 13:13:02;;;;;;;2.10;0.82;;;23.00;86.00;;;;;;5125291;27;20107;-69